Time;durP1;ratioP1;P1;durP2;ratioP2;P2;SDS_P1;SDS_P2;PMS_P1;PMS_P2;Temp;Humidity;BMP_temperature;BMP_pressure;BME280_temperature;BME280_humidity;BME280_pressure;Samples;Min_cycle;Max_cycle;Signal;HPM_P1;HPM_P2
2022/06/18 00:01:38;;;;;;;9.77;8.20;;;;;;;14.65;88.31;99349.47;5053432;28;20222;-59
2022/06/18 00:04:10;;;;;;;8.98;6.97;;;;;;;14.71;88.42;99360.53;5041409;28;20536;-59
2022/06/18 00:07:04;;;;;;;8.60;7.60;;;;;;;14.63;88.86;99353.91;5033692;28;20049;-59
2022/06/18 00:09:34;;;;;;;10.45;7.88;;;;;;;14.43;89.01;99328.69;5033853;28;20037;-59
2022/06/18 00:14:51;;;;;;;11.98;7.30;;;;;;;14.75;88.55;99362.09;5053690;28;20394;-59
2022/06/18 00:17:18;;;;;;;9.93;7.30;;;;;;;14.74;88.12;99365.63;5053544;28;20057;-59
2022/06/18 00:19:45;;;;;;;8.80;7.10;;;;;;;14.74;88.20;99371.69;5065676;28;20013;-59
2022/06/18 00:22:15;;;;;;;8.40;7.20;;;;;;;14.72;88.17;99367.44;5064422;28;20520;-59
2022/06/18 00:24:42;;;;;;;10.30;7.82;;;;;;;14.73;87.54;99370.00;5054414;28;20044;-59
2022/06/18 00:27:13;;;;;;;11.30;7.97;;;;;;;14.72;87.89;99364.84;5036979;28;20029;-59
2022/06/18 00:29:39;;;;;;;7.57;6.78;;;;;;;14.71;88.33;99368.34;5048603;28;20075;-59
2022/06/18 00:32:06;;;;;;;9.20;6.80;;;;;;;14.66;87.50;99369.44;5052008;28;20470;-59
2022/06/18 00:34:32;;;;;;;8.35;7.50;;;;;;;14.67;88.00;99371.09;5068740;28;20025;-59
2022/06/18 00:36:58;;;;;;;10.82;7.20;;;;;;;14.63;88.11;99364.31;5072533;28;20106;-59
2022/06/18 00:39:24;;;;;;;9.40;6.90;;;;;;;14.59;87.87;99373.19;5072969;28;20040;-59
2022/06/18 00:41:53;;;;;;;12.48;7.78;;;;;;;14.63;87.52;99372.16;5073207;28;20036;-59
2022/06/18 00:44:36;;;;;;;7.97;7.18;;;;;;;14.62;87.29;99373.06;5073079;28;20060;-59
2022/06/18 00:47:19;;;;;;;8.15;7.35;;;;;;;14.57;87.71;99372.38;5055666;28;20120;-58
2022/06/18 00:49:57;;;;;;;13.30;7.53;;;;;;;14.56;87.33;99378.50;5052768;28;20032;-59
2022/06/18 00:52:51;;;;;;;8.90;8.00;;;;;;;14.54;87.70;99377.72;5052855;28;20033;-59
2022/06/18 00:55:35;;;;;;;9.63;7.18;;;;;;;14.23;87.93;99319.09;5063061;28;20037;-59
2022/06/18 00:58:12;;;;;;;10.68;6.93;;;;;;;14.35;87.86;99349.03;5072652;28;20035;-60
2022/06/18 01:00:41;;;;;;;8.63;7.10;;;;;;;14.21;87.46;99336.56;5071412;28;20389;-60
2022/06/18 01:03:24;;;;;;;10.32;7.03;;;;;;;14.53;87.89;99390.84;5064499;28;20056;-59
2022/06/18 01:05:51;;;;;;;7.15;6.45;;;;;;;14.50;87.66;99384.00;5034236;28;20364;-60
2022/06/18 01:08:20;;;;;;;8.90;6.80;;;;;;;14.53;87.65;99402.09;5052576;28;20451;-60
2022/06/18 01:10:54;;;;;;;8.55;7.13;;;;;;;14.31;87.88;99353.50;5035044;28;20033;-60
2022/06/18 01:13:23;;;;;;;10.63;6.72;;;;;;;14.47;87.45;99391.94;5060135;28;20032;-60
2022/06/18 01:15:52;;;;;;;12.48;7.30;;;;;;;14.48;87.68;99404.06;5069214;28;20363;-59
2022/06/18 01:18:18;;;;;;;8.63;6.25;;;;;;;14.45;87.27;99402.44;5057494;28;20032;-59
2022/06/18 01:21:25;;;;;;;10.52;7.00;;;;;;;14.49;87.30;99397.91;5072638;28;20020;-58
2022/06/18 01:24:01;;;;;;;7.85;6.43;;;;;;;14.19;87.51;99348.78;5064538;28;20056;-59
2022/06/18 01:26:27;;;;;;;8.98;6.45;;;;;;;14.45;87.71;99404.16;5072296;28;20099;-58
2022/06/18 01:28:54;;;;;;;8.25;6.80;;;;;;;14.44;87.62;99397.28;5061128;28;20104;-58
2022/06/18 01:31:20;;;;;;;7.82;6.60;;;;;;;14.49;86.78;99397.91;5048802;28;20553;-58
2022/06/18 01:33:46;;;;;;;8.13;6.22;;;;;;;14.48;87.63;99391.03;5060656;28;20017;-58
2022/06/18 01:36:13;;;;;;;9.38;7.05;;;;;;;14.45;87.68;99401.56;5051465;28;20061;-59
2022/06/18 01:38:44;;;;;;;9.60;7.53;;;;;;;14.45;87.16;99397.22;5032111;28;20034;-59
2022/06/18 01:44:09;;;;;;;8.18;6.30;;;;;;;14.36;86.95;99394.97;5070895;28;20572;-59
2022/06/18 01:46:38;;;;;;;7.13;6.35;;;;;;;14.33;87.88;99389.91;5042680;28;20033;-59
2022/06/18 01:49:09;;;;;;;8.80;5.93;;;;;;;14.46;87.61;99418.91;5042045;28;20029;-59
2022/06/18 01:51:39;;;;;;;7.50;6.72;;;;;;;14.44;88.02;99415.53;5052258;28;20084;-58
2022/06/18 01:54:19;;;;;;;7.10;6.40;;;;;;;14.05;87.70;99361.53;5055043;28;20439;-58
2022/06/18 01:56:50;;;;;;;7.22;6.05;;;;;;;14.06;87.10;99361.47;5072114;28;20068;-58
2022/06/18 01:59:38;;;;;;;8.35;6.15;;;;;;;14.39;87.66;99423.50;5071767;28;20119;-58
2022/06/18 02:02:04;;;;;;;10.88;6.68;;;;;;;14.30;88.86;99419.53;5071927;28;20382;-59
2022/06/18 02:04:32;;;;;;;8.25;5.85;;;;;;;14.07;88.17;99370.16;5071632;28;20074;-59
2022/06/18 02:06:57;;;;;;;9.18;6.03;;;;;;;14.33;88.23;99418.56;5071702;28;20093;-58
2022/06/18 02:09:29;;;;;;;9.52;6.13;;;;;;;14.42;88.28;99430.34;5071924;28;20465;-59
2022/06/18 02:11:56;;;;;;;10.85;7.13;;;;;;;14.43;87.83;99432.06;5071077;28;20044;-59
2022/06/18 02:14:25;;;;;;;9.25;6.35;;;;;;;14.40;87.99;99417.41;5071940;28;20460;-59
2022/06/18 02:16:52;;;;;;;8.13;5.97;;;;;;;14.45;87.15;99430.22;5056291;28;20025;-59
2022/06/18 02:19:18;;;;;;;9.80;5.93;;;;;;;14.46;87.57;99426.72;5050742;28;20044;-59
2022/06/18 02:21:48;;;;;;;8.52;5.55;;;;;;;14.48;87.52;99435.34;5059750;28;20078;-59
2022/06/18 02:24:15;;;;;;;8.32;5.18;;;;;;;14.54;87.28;99427.25;5067331;28;20067;-59
2022/06/18 02:26:41;;;;;;;6.95;4.75;;;;;;;14.53;87.20;99425.53;5050499;28;20017;-59
2022/06/18 02:29:17;;;;;;;8.45;5.70;;;;;;;14.28;86.77;99377.06;5071121;28;20493;-59
2022/06/18 02:31:45;;;;;;;6.82;5.15;;;;;;;14.56;87.38;99435.84;5055189;28;20539;-59
2022/06/18 02:34:19;;;;;;;9.40;5.20;;;;;;;14.66;87.10;99437.19;5051335;28;20045;-59
2022/06/18 02:36:44;;;;;;;6.80;5.40;;;;;;;14.67;86.84;99435.44;5058501;28;20045;-60
2022/06/18 02:39:29;;;;;;;12.15;5.20;;;;;;;14.73;86.46;99431.72;5071324;28;20114;-58
2022/06/18 02:42:03;;;;;;;7.38;5.22;;;;;;;14.38;86.78;99366.25;5054308;28;20127;-59
2022/06/18 02:44:29;;;;;;;7.25;5.28;;;;;;;14.72;86.31;99423.06;5071415;28;20036;-58
2022/06/18 02:46:56;;;;;;;4.95;4.45;;;;;;;14.79;86.17;99418.41;5057147;28;20463;-58
2022/06/18 02:49:22;;;;;;;6.50;4.80;;;;;;;14.80;85.89;99417.50;5066913;28;20048;-59
2022/06/18 02:51:47;;;;;;;5.20;4.63;;;;;;;14.86;86.32;99416.38;5061144;28;20044;-59
2022/06/18 02:54:14;;;;;;;5.93;4.65;;;;;;;14.75;86.45;99416.84;5057566;28;20482;-59
2022/06/18 02:56:39;;;;;;;6.90;4.10;;;;;;;14.79;85.51;99415.78;5074984;28;20078;-59
2022/06/18 02:59:06;;;;;;;4.97;4.35;;;;;;;14.84;85.94;99419.91;5036229;28;20025;-59
2022/06/18 03:01:32;;;;;;;7.82;4.82;;;;;;;14.85;86.27;99415.56;5047121;28;20111;-59
2022/06/18 03:04:00;;;;;;;5.53;4.30;;;;;;;14.84;85.65;99403.44;5064536;28;20119;-59
2022/06/18 03:06:28;;;;;;;7.78;6.53;;;;;;;14.67;85.18;99368.50;5070657;28;20049;-59
2022/06/18 03:08:55;;;;;;;7.28;6.57;;;;;;;15.04;84.80;99420.81;5055490;28;20039;-58
2022/06/18 03:14:09;;;;;;;11.43;7.13;;;;;;;15.06;84.87;99418.94;5073955;28;20024;-59
2022/06/18 03:16:35;;;;;;;5.72;5.22;;;;;;;15.11;85.29;99413.56;5074571;28;20680;-59
2022/06/18 03:19:03;;;;;;;6.43;5.03;;;;;;;15.09;84.27;99376.25;5063078;28;20037;-59
2022/06/18 03:21:45;;;;;;;4.65;4.22;;;;;;;15.29;83.08;99363.16;5054239;28;20025;-59
2022/06/18 03:24:10;;;;;;;;;;;;;;;15.78;81.14;99414.81;5054851;28;20032;-59
2022/06/18 03:26:37;;;;;;;7.00;4.13;;;;;;;15.79;79.63;99420.91;5054671;28;19908;-59
2022/06/18 03:29:05;;;;;;;10.48;4.25;;;;;;;15.50;81.81;99370.88;5053169;28;20489;-59
2022/06/18 03:31:31;;;;;;;6.38;4.25;;;;;;;15.74;78.08;99422.88;5051534;28;20056;-59
2022/06/18 03:33:57;;;;;;;6.20;4.20;;;;;;;15.79;80.46;99427.00;5054064;28;20028;-59
2022/06/18 03:36:22;;;;;;;6.43;3.83;;;;;;;15.75;79.36;99416.72;5054074;28;20436;-59
2022/06/18 03:38:49;;;;;;;6.13;3.75;;;;;;;15.90;79.30;99412.56;5053728;28;20041;-59
2022/06/18 03:41:16;;;;;;;6.10;3.38;;;;;;;15.90;77.80;99405.56;5034234;28;20479;-59
2022/06/18 03:43:42;;;;;;;5.70;3.35;;;;;;;16.00;78.21;99417.31;5036861;28;20187;-59
2022/06/18 03:46:10;;;;;;;4.00;2.80;;;;;;;16.08;75.77;99423.91;5055138;28;20518;-59
2022/06/18 03:48:45;;;;;;;3.78;2.60;;;;;;;16.00;78.09;99432.97;5059290;28;20024;-59
2022/06/18 03:51:12;;;;;;;3.00;2.60;;;;;;;16.19;75.06;99426.84;5065192;28;20028;-58
2022/06/18 03:53:38;;;;;;;6.85;2.72;;;;;;;16.31;75.42;99425.41;5053727;28;20101;-59
2022/06/18 03:56:04;;;;;;;4.35;2.60;;;;;;;16.40;75.30;99427.53;5072506;28;20108;-59
2022/06/18 03:58:30;;;;;;;4.95;2.60;;;;;;;16.41;75.51;99420.56;5073405;28;20026;-59
2022/06/18 04:00:56;;;;;;;3.97;2.60;;;;;;;16.53;76.71;99430.38;5061955;28;20040;-60
2022/06/18 04:03:21;;;;;;;4.32;2.65;;;;;;;16.59;76.07;99430.09;5054791;28;20070;-60
2022/06/18 04:05:47;;;;;;;3.80;3.20;;;;;;;16.56;76.11;99436.31;5050921;28;20025;-60
2022/06/18 04:08:14;;;;;;;3.72;2.40;;;;;;;16.38;75.76;99417.16;5036305;28;20029;-60
2022/06/18 04:10:40;;;;;;;2.42;2.22;;;;;;;16.55;75.59;99434.63;5064318;28;20067;-60
2022/06/18 04:13:07;;;;;;;3.63;1.58;;;;;;;16.54;72.91;99426.84;5070082;28;20028;-59
2022/06/18 04:15:32;;;;;;;3.75;1.90;;;;;;;16.62;70.50;99435.16;5058343;28;20421;-59
2022/06/18 04:17:58;;;;;;;3.33;1.95;;;;;;;16.65;72.48;99435.00;5033982;28;20025;-59
2022/06/18 04:20:29;;;;;;;2.13;1.85;;;;;;;16.62;73.59;99450.03;5072832;28;20021;-59
2022/06/18 04:22:56;;;;;;;2.08;1.50;;;;;;;16.66;69.44;99436.72;5072768;28;20041;-59
2022/06/18 04:25:22;;;;;;;2.35;1.83;;;;;;;16.69;72.27;99439.16;5072807;28;20565;-60
2022/06/18 04:27:49;;;;;;;2.55;1.60;;;;;;;16.79;70.77;99430.84;5073277;28;20031;-59
2022/06/18 04:30:15;;;;;;;2.58;1.70;;;;;;;16.84;71.13;99436.69;5069564;28;20029;-59
2022/06/18 04:32:41;;;;;;;4.38;1.88;;;;;;;16.88;71.48;99430.41;5053351;28;20108;-59
2022/06/18 04:35:10;;;;;;;2.60;1.75;;;;;;;16.61;73.33;99385.56;5070173;28;20032;-61
2022/06/18 04:37:36;;;;;;;1.98;1.77;;;;;;;16.86;70.61;99424.34;5073187;28;20048;-59
2022/06/18 04:40:03;;;;;;;2.10;1.90;;;;;;;17.03;69.36;99437.47;5063261;28;20036;-60
2022/06/18 04:42:29;;;;;;;3.25;1.83;;;;;;;17.11;70.55;99433.59;5053029;28;20071;-60
2022/06/18 04:44:56;;;;;;;1.83;1.73;;;;;;;17.08;68.36;99437.22;5052692;28;20033;-60
2022/06/18 04:47:22;;;;;;;2.10;1.52;;;;;;;17.14;68.29;99442.13;5044014;28;20107;-60
2022/06/18 04:49:47;;;;;;;1.98;1.67;;;;;;;17.20;69.54;99436.56;5050464;28;20086;-60
2022/06/18 04:52:13;;;;;;;2.17;1.95;;;;;;;17.21;69.64;99440.88;5050100;28;20500;-60
2022/06/18 04:54:39;;;;;;;2.03;1.77;;;;;;;17.28;69.53;99438.78;5050309;28;20473;-61
2022/06/18 04:57:04;;;;;;;2.00;1.88;;;;;;;17.36;69.70;99447.06;5050098;28;20036;-60
2022/06/18 04:59:30;;;;;;;2.17;1.88;;;;;;;17.42;69.77;99438.03;5050488;28;20036;-60
2022/06/18 05:02:01;;;;;;;4.78;2.10;;;;;;;17.40;64.75;99438.13;5052287;28;20021;-60
2022/06/18 05:04:27;;;;;;;3.55;1.90;;;;;;;17.50;66.03;99441.09;5052385;28;20033;-60
2022/06/18 05:06:52;;;;;;;1.70;1.60;;;;;;;17.66;65.42;99440.25;5050043;28;20019;-60
2022/06/18 05:09:19;;;;;;;1.30;1.20;;;;;;;17.82;63.19;99437.66;5049103;28;20040;-60
2022/06/18 05:11:45;;;;;;;2.47;1.67;;;;;;;18.01;62.18;99448.78;5051016;28;20478;-60
2022/06/18 05:14:10;;;;;;;2.78;1.60;;;;;;;17.92;64.68;99449.31;5049640;28;20386;-60
2022/06/18 05:16:36;;;;;;;2.45;1.30;;;;;;;17.98;64.14;99443.72;5044601;28;20014;-61
2022/06/18 05:19:02;;;;;;;1.48;1.20;;;;;;;18.08;62.26;99446.69;5046854;28;20051;-60
2022/06/18 05:21:27;;;;;;;1.52;1.42;;;;;;;18.05;64.97;99447.69;5040620;28;20086;-60
2022/06/18 05:23:53;;;;;;;1.95;1.30;;;;;;;18.14;64.71;99446.31;5050889;28;20025;-61
2022/06/18 05:26:19;;;;;;;3.45;1.33;;;;;;;18.30;63.83;99451.56;5048349;28;20048;-61
2022/06/18 05:28:45;;;;;;;2.17;1.20;;;;;;;18.30;62.12;99451.56;5048614;28;20017;-61
2022/06/18 05:31:11;;;;;;;1.88;1.10;;;;;;;18.51;60.54;99459.94;5051009;28;20098;-61
2022/06/18 05:33:37;;;;;;;2.60;1.10;;;;;;;18.65;58.47;99459.16;5046133;28;20029;-59
2022/06/18 05:36:03;;;;;;;1.90;1.10;;;;;;;18.80;58.07;99462.66;5037577;28;20040;-61
2022/06/18 05:38:29;;;;;;;2.55;1.10;;;;;;;18.71;60.60;99457.94;5048993;28;20052;-61
2022/06/18 05:40:54;;;;;;;3.70;1.73;;;;;;;18.86;61.58;99462.28;5048847;28;20398;-61
2022/06/18 05:43:20;;;;;;;3.72;1.17;;;;;;;18.85;60.84;99463.22;5047436;28;20033;-61
2022/06/18 05:45:46;;;;;;;2.17;1.45;;;;;;;18.84;59.94;99464.19;5052173;28;20470;-60
2022/06/18 05:48:12;;;;;;;2.97;1.48;;;;;;;18.86;60.70;99461.47;5050890;28;20181;-60
2022/06/18 05:50:38;;;;;;;3.47;1.13;;;;;;;18.94;58.35;99464.47;5066677;28;20083;-60
2022/06/18 05:53:04;;;;;;;3.17;1.50;;;;;;;18.96;60.54;99457.38;5049825;28;20087;-62
2022/06/18 05:55:29;;;;;;;1.40;1.30;;;;;;;18.88;56.78;99464.84;5038498;28;20044;-61
2022/06/18 05:57:56;;;;;;;1.77;1.25;;;;;;;18.96;56.62;99467.88;5042173;28;20018;-61
2022/06/18 06:00:25;;;;;;;1.85;1.38;;;;;;;18.67;56.14;99427.56;5047123;28;20124;-61
2022/06/18 06:02:51;;;;;;;3.58;1.25;;;;;;;18.84;58.71;99460.69;5043048;28;20051;-62
2022/06/18 06:05:17;;;;;;;3.00;1.10;;;;;;;18.92;57.65;99455.88;5051580;28;20017;-61
2022/06/18 06:07:44;;;;;;;1.50;1.13;;;;;;;19.11;55.03;99466.09;5045350;28;20033;-61
2022/06/18 06:13:14;;;;;;;2.78;1.10;;;;;;;19.33;54.27;99457.75;5050239;28;20136;-61
2022/06/18 06:15:40;;;;;;;2.15;1.30;;;;;;;19.38;54.94;99460.97;5031522;28;20112;-60
2022/06/18 06:18:07;;;;;;;4.60;1.55;;;;;;;19.42;55.91;99467.69;5049158;28;20029;-62
2022/06/18 06:20:38;;;;;;;1.65;1.25;;;;;;;19.08;52.27;99419.91;5051438;28;20083;-61
2022/06/18 06:23:04;;;;;;;1.48;1.38;;;;;;;19.16;52.99;99468.47;5045715;28;20036;-61
2022/06/18 06:25:30;;;;;;;2.85;1.30;;;;;;;19.40;54.98;99456.44;5042765;28;20108;-61
2022/06/18 06:27:56;;;;;;;1.20;1.10;;;;;;;19.44;56.90;99457.94;5035740;28;20701;-61
2022/06/18 06:30:22;;;;;;;3.20;1.35;;;;;;;19.37;55.52;99454.00;5038930;28;20072;-61
2022/06/18 06:32:47;;;;;;;3.90;1.40;;;;;;;19.42;53.36;99459.81;5055458;28;20488;-61
2022/06/18 06:35:13;;;;;;;3.30;1.40;;;;;;;19.57;53.70;99457.19;5036504;28;20021;-60
2022/06/18 06:37:39;;;;;;;2.70;1.75;;;;;;;19.63;53.17;99455.00;5063288;28;20044;-61
2022/06/18 06:40:06;;;;;;;2.13;1.38;;;;;;;19.67;53.01;99456.50;5051658;28;20036;-61
2022/06/18 06:42:47;;;;;;;2.05;1.25;;;;;;;19.69;55.28;99460.81;5049522;28;20040;-61
2022/06/18 06:45:17;;;;;;;4.03;1.38;;;;;;;19.41;53.95;99412.63;5035059;28;20433;-61
2022/06/18 06:47:44;;;;;;;4.32;1.30;;;;;;;19.48;51.88;99462.06;5035735;28;20108;-60
2022/06/18 06:50:11;;;;;;;3.72;1.40;;;;;;;19.64;52.83;99459.31;5047990;28;20544;-62
2022/06/18 06:52:37;;;;;;;2.88;1.30;;;;;;;19.57;52.53;99454.56;5055033;28;20402;-61
2022/06/18 06:57:49;;;;;;;2.50;1.42;;;;;;;19.80;52.99;99459.22;5054691;28;20037;-61
2022/06/18 07:00:15;;;;;;;3.00;1.60;;;;;;;19.91;53.89;99457.69;5051024;28;20026;-61
2022/06/18 07:02:41;;;;;;;2.88;1.42;;;;;;;20.02;53.11;99463.09;5052709;28;20556;-62
2022/06/18 07:05:07;;;;;;;1.70;1.55;;;;;;;19.92;54.13;99462.03;5048613;28;20025;-62
2022/06/18 07:07:32;;;;;;;3.22;1.67;;;;;;;20.08;54.40;99460.09;5049695;28;20066;-62
2022/06/18 07:09:58;;;;;;;1.98;1.42;;;;;;;20.02;54.30;99457.84;5052202;28;20029;-62
2022/06/18 07:12:23;;;;;;;2.63;1.60;;;;;;;20.10;54.54;99467.88;5052210;28;20033;-61
2022/06/18 07:14:49;;;;;;;1.65;1.45;;;;;;;20.17;52.36;99456.88;5053338;28;20394;-61
2022/06/18 07:17:19;;;;;;;5.45;1.77;;;;;;;20.28;52.23;99448.28;5054284;28;20464;-62
2022/06/18 07:19:45;;;;;;;3.50;1.60;;;;;;;20.05;50.73;99452.41;5052305;28;20025;-61
2022/06/18 07:22:10;;;;;;;2.58;1.50;;;;;;;20.22;51.09;99445.19;5051996;28;20104;-62
2022/06/18 07:24:37;;;;;;;3.00;1.40;;;;;;;20.26;51.98;99447.53;5051757;28;20103;-62
2022/06/18 07:27:04;;;;;;;1.38;1.30;;;;;;;20.39;51.38;99444.94;5055041;28;20031;-63
2022/06/18 07:29:29;;;;;;;4.03;1.40;;;;;;;20.46;51.97;99443.56;5059894;28;20470;-63
2022/06/18 07:32:03;;;;;;;3.03;1.60;;;;;;;20.39;50.96;99452.81;5054932;28;20055;-62
2022/06/18 07:34:29;;;;;;;4.47;1.40;;;;;;;20.34;50.09;99445.25;5053270;28;20025;-62
2022/06/18 07:36:54;;;;;;;3.97;1.60;;;;;;;20.41;53.95;99440.44;5047320;28;20053;-62
2022/06/18 07:39:20;;;;;;;2.75;1.60;;;;;;;20.65;52.22;99452.88;5046195;28;20043;-63
2022/06/18 07:41:52;;;;;;;3.92;1.52;;;;;;;20.23;51.86;99397.75;5053780;28;20025;-62
2022/06/18 07:44:18;;;;;;;2.35;1.30;;;;;;;20.43;52.43;99446.41;5056045;28;20021;-63
2022/06/18 07:46:45;;;;;;;1.98;1.58;;;;;;;20.32;53.60;99438.38;5050911;28;20032;-62
2022/06/18 07:49:11;;;;;;;4.20;1.80;;;;;;;20.33;52.93;99446.19;5050921;28;20021;-62
2022/06/18 07:51:37;;;;;;;5.30;1.77;;;;;;;20.43;52.48;99456.94;5054441;28;20032;-62
2022/06/18 07:54:03;;;;;;;2.05;1.40;;;;;;;20.39;51.95;99452.81;5053312;28;20017;-62
2022/06/18 07:56:30;;;;;;;3.53;1.83;;;;;;;20.30;50.49;99467.41;5050371;28;20027;-62
2022/06/18 07:58:55;;;;;;;3.05;1.58;;;;;;;20.45;51.34;99433.16;5053368;28;20075;-62
2022/06/18 08:01:21;;;;;;;2.80;1.40;;;;;;;20.66;51.90;99444.03;5055366;28;20674;-61
2022/06/18 08:03:46;;;;;;;2.13;1.48;;;;;;;20.69;53.11;99442.09;5053331;28;20044;-62
2022/06/18 08:06:12;;;;;;;3.50;1.48;;;;;;;20.76;51.88;99446.94;5051740;28;20441;-61
2022/06/18 08:08:38;;;;;;;4.40;1.70;;;;;;;20.73;52.65;99447.97;5052486;28;20033;-61
2022/06/18 08:11:23;;;;;;;3.10;1.50;;;;;;;20.68;53.68;99444.81;5048296;28;20047;-61
2022/06/18 08:13:50;;;;;;;4.28;1.35;;;;;;;20.46;52.23;99445.38;5053285;28;20020;-61
2022/06/18 08:16:16;;;;;;;3.08;1.50;;;;;;;20.55;52.64;99444.78;5053733;28;20024;-61
2022/06/18 08:18:42;;;;;;;4.78;1.60;;;;;;;20.53;53.18;99452.75;5052474;28;20060;-62
2022/06/18 08:21:17;;;;;;;2.55;1.50;;;;;;;20.29;53.42;99396.50;5045815;28;20034;-61
2022/06/18 08:23:44;;;;;;;5.20;1.73;;;;;;;20.29;52.86;99401.78;5051718;28;20024;-61
2022/06/18 08:26:10;;;;;;;7.35;3.38;;;;;;;20.45;51.70;99449.81;5050412;28;20465;-61
2022/06/18 08:28:38;;;;;;;6.10;1.85;;;;;;;20.06;50.98;99396.25;5040185;28;20021;-60
2022/06/18 08:31:07;;;;;;;3.00;1.70;;;;;;;20.23;52.37;99439.00;5033077;28;20075;-61
2022/06/18 08:33:33;;;;;;;1.67;1.45;;;;;;;20.32;52.22;99447.16;5033267;28;20035;-61
2022/06/18 08:36:02;;;;;;;2.67;1.58;;;;;;;20.26;52.78;99444.06;5033102;28;20025;-61
2022/06/18 08:38:28;;;;;;;2.08;1.42;;;;;;;20.37;53.07;99433.69;5072787;28;20041;-61
2022/06/18 08:41:08;;;;;;;1.98;1.58;;;;;;;20.29;52.78;99441.22;5072962;28;20029;-61
2022/06/18 08:43:34;;;;;;;3.80;1.63;;;;;;;20.44;53.51;99432.31;5071874;28;20050;-62
2022/06/18 08:46:22;;;;;;;2.70;1.67;;;;;;;20.44;51.67;99394.66;5063696;28;20017;-62
2022/06/18 08:49:07;;;;;;;1.88;1.60;;;;;;;20.83;51.92;99438.50;5052960;28;20040;-61
2022/06/18 08:51:53;;;;;;;2.30;1.70;;;;;;;21.07;51.97;99432.50;5056609;28;20025;-62
2022/06/18 08:54:32;;;;;;;3.33;1.70;;;;;;;21.15;49.91;99424.91;5062720;28;20090;-62
2022/06/18 08:57:36;;;;;;;3.72;1.33;;;;;;;21.17;50.26;99428.28;5032894;28;20049;-62
2022/06/18 09:00:29;;;;;;;2.90;1.55;;;;;;;21.16;51.58;99429.25;5033133;28;20049;-62
2022/06/18 09:03:07;;;;;;;4.10;1.85;;;;;;;21.09;50.35;99412.19;5032994;28;20021;-62
2022/06/18 09:06:05;;;;;;;2.13;1.80;;;;;;;21.09;51.89;99437.66;5045343;28;20037;-62
2022/06/18 09:09:18;;;;;;;3.58;1.77;;;;;;;21.09;51.23;99437.66;5051105;28;20045;-63
2022/06/18 09:12:08;;;;;;;2.15;1.40;;;;;;;21.07;52.67;99435.13;5031130;28;20048;-62
2022/06/18 09:14:49;;;;;;;5.90;2.03;;;;;;;20.95;50.60;99430.72;5038498;28;20028;-62
2022/06/18 09:17:29;;;;;;;3.92;1.63;;;;;;;21.01;51.04;99436.41;5052334;28;20037;-62
2022/06/18 09:20:25;;;;;;;1.58;1.45;;;;;;;20.97;49.63;99429.66;5061362;28;20144;-62
2022/06/18 09:22:54;;;;;;;3.50;1.50;;;;;;;20.77;52.34;99423.13;5041228;28;20494;-63
2022/06/18 09:25:26;;;;;;;1.50;1.40;;;;;;;20.65;51.18;99394.97;5051986;28;20451;-62
2022/06/18 09:27:51;;;;;;;;;;;;;;;20.93;50.13;99430.81;5047745;28;20509;-62
2022/06/18 09:30:25;;;;;;;1.23;1.13;;;;;;;20.73;48.17;99383.97;5039891;28;19935;-62
2022/06/18 09:32:59;;;;;;;1.77;1.60;;;;;;;20.96;47.37;99424.50;5051293;28;20375;-63
2022/06/18 09:35:34;;;;;;;3.63;1.38;;;;;;;20.61;48.12;99388.25;5032846;28;20474;-62
2022/06/18 09:38:13;;;;;;;3.25;1.50;;;;;;;20.69;49.39;99414.91;5047456;28;20048;-62
2022/06/18 09:40:47;;;;;;;3.70;1.63;;;;;;;20.69;48.23;99430.69;5051797;28;20041;-62
2022/06/18 09:43:43;;;;;;;2.30;1.60;;;;;;;20.51;53.05;99423.06;5051567;28;20033;-62
2022/06/18 09:46:17;;;;;;;2.33;1.70;;;;;;;20.42;50.63;99426.34;5053432;28;20456;-63
2022/06/18 09:48:43;;;;;;;2.33;1.50;;;;;;;20.44;52.09;99440.22;5046622;28;20398;-62
2022/06/18 09:51:36;;;;;;;1.77;1.67;;;;;;;20.47;52.72;99433.91;5031914;28;20498;-62
2022/06/18 09:54:07;;;;;;;2.42;1.83;;;;;;;20.63;51.28;99407.41;5037892;28;20470;-62
2022/06/18 09:56:56;;;;;;;3.90;1.92;;;;;;;21.01;50.40;99415.34;5031398;28;20041;-63
2022/06/18 09:59:28;;;;;;;2.50;1.63;;;;;;;21.23;48.11;99426.16;5050296;28;20060;-61
2022/06/18 10:01:56;;;;;;;2.67;1.50;;;;;;;21.46;49.51;99406.09;5066302;28;20020;-62
2022/06/18 10:07:18;;;;;;;1.50;1.40;;;;;;;21.47;49.36;99413.88;5058349;28;20056;-60
2022/06/18 10:09:53;;;;;;;7.82;1.50;;;;;;;21.00;46.30;99389.13;5041560;28;20063;-61
2022/06/18 10:12:21;;;;;;;2.20;1.35;;;;;;;21.21;48.05;99429.75;5068990;28;20021;-61
2022/06/18 10:14:56;;;;;;;1.85;1.50;;;;;;;20.73;47.91;99369.00;5031850;28;20038;-62
2022/06/18 10:17:44;;;;;;;2.35;1.50;;;;;;;20.86;47.47;99421.66;5068137;28;20033;-61
2022/06/18 10:20:24;;;;;;;3.40;1.30;;;;;;;20.71;49.00;99428.81;5054843;28;20032;-62
2022/06/18 10:23:37;;;;;;;1.30;1.20;;;;;;;20.67;48.69;99429.97;5051835;28;20021;-62
2022/06/18 10:26:39;;;;;;;3.10;1.30;;;;;;;20.69;48.52;99430.69;5013603;28;20115;-61
2022/06/18 10:29:17;;;;;;;1.70;1.50;;;;;;;20.75;49.85;99440.81;5031614;28;20025;-61
2022/06/18 10:32:05;;;;;;;4.60;1.52;;;;;;;20.71;49.72;99436.72;5057484;28;20024;-62
2022/06/18 10:34:55;;;;;;;4.78;1.52;;;;;;;20.71;47.94;99436.72;5071496;28;20031;-62
2022/06/18 10:37:27;;;;;;;1.80;1.30;;;;;;;20.84;47.71;99426.19;5051710;28;20075;-62
2022/06/18 10:40:14;;;;;;;2.20;1.20;;;;;;;21.14;48.41;99430.28;5053044;28;20052;-62
2022/06/18 10:43:01;;;;;;;2.33;1.52;;;;;;;21.34;49.37;99428.91;5063542;28;20061;-62
2022/06/18 10:45:48;;;;;;;1.40;1.10;;;;;;;21.21;45.43;99426.28;5031091;28;20067;-62
2022/06/18 10:48:19;;;;;;;2.63;1.58;;;;;;;21.36;48.06;99419.06;5031595;28;20180;-63
2022/06/18 10:50:49;;;;;;;2.38;1.27;;;;;;;21.28;47.25;99379.28;5031616;28;20403;-62
2022/06/18 10:53:16;;;;;;;1.73;1.20;;;;;;;21.16;46.54;99370.44;5031270;28;20021;-62
2022/06/18 10:55:43;;;;;;;2.45;1.27;;;;;;;21.31;46.86;99418.56;5063380;28;20025;-63
2022/06/18 10:58:12;;;;;;;1.73;1.20;;;;;;;21.08;46.68;99365.72;5063578;28;20108;-65
2022/06/18 11:00:39;;;;;;;2.58;2.15;;;;;;;21.37;47.63;99407.59;5047508;28;20030;-62
2022/06/18 11:03:20;;;;;;;5.25;1.63;;;;;;;21.34;47.65;99411.28;5031438;28;20029;-63
2022/06/18 11:05:47;;;;;;;2.75;1.38;;;;;;;21.33;47.01;99406.13;5031322;28;20029;-63
2022/06/18 11:08:26;;;;;;;8.02;1.67;;;;;;;21.41;45.86;99410.88;5050352;28;20079;-63
2022/06/18 11:10:59;;;;;;;1.73;1.30;;;;;;;21.49;45.62;99398.81;5054696;28;20064;-62
2022/06/18 11:13:27;;;;;;;3.97;1.50;;;;;;;21.50;46.86;99404.94;5063462;28;20083;-63
2022/06/18 11:16:22;;;;;;;2.35;1.33;;;;;;;21.58;44.95;99399.13;5063375;28;20079;-62
2022/06/18 11:19:00;;;;;;;3.42;1.40;;;;;;;21.57;43.54;99403.56;5029580;28;20037;-62
2022/06/18 11:21:40;;;;;;;2.15;1.23;;;;;;;21.41;44.04;99345.00;5051018;28;20036;-62
2022/06/18 11:24:44;;;;;;;6.13;1.40;;;;;;;21.75;46.34;99392.63;5054679;28;20033;-62
2022/06/18 11:27:16;;;;;;;3.10;1.40;;;;;;;21.69;43.87;99371.06;5054254;28;20355;-62
2022/06/18 11:29:54;;;;;;;1.30;1.20;;;;;;;21.76;44.32;99389.88;5054408;28;20513;-61
2022/06/18 11:32:41;;;;;;;2.58;1.10;;;;;;;21.89;42.76;99385.41;5037156;28;20029;-62
2022/06/18 11:35:25;;;;;;;3.53;1.65;;;;;;;21.60;41.64;99334.00;5049122;28;20025;-63
2022/06/18 11:38:32;;;;;;;3.75;1.30;;;;;;;21.87;43.01;99376.75;5046140;28;20475;-62
2022/06/18 11:41:14;;;;;;;3.17;1.15;;;;;;;21.60;42.17;99329.53;5059813;28;20044;-62
2022/06/18 11:43:59;;;;;;;5.82;1.40;;;;;;;21.77;43.17;99335.38;5050156;28;20041;-62
2022/06/18 11:46:36;;;;;;;1.38;1.05;;;;;;;22.09;41.17;99374.34;5033764;28;20034;-62
2022/06/18 11:49:13;;;;;;;4.15;1.40;;;;;;;21.88;44.00;99349.44;5047268;28;20044;-61
2022/06/18 11:51:45;;;;;;;2.80;1.15;;;;;;;21.63;41.31;99326.69;5066021;28;20048;-61
2022/06/18 11:54:18;;;;;;;1.30;1.20;;;;;;;21.74;41.42;99360.19;5040970;28;20367;-61
2022/06/18 11:56:43;;;;;;;4.25;1.42;;;;;;;21.85;41.24;99370.78;5034440;28;20040;-62
2022/06/18 11:59:27;;;;;;;1.33;1.23;;;;;;;21.86;41.83;99359.28;5049413;28;20037;-62
2022/06/18 12:01:58;;;;;;;2.53;1.38;;;;;;;21.91;43.29;99379.19;5039905;28;20041;-63
2022/06/18 12:04:24;;;;;;;2.10;1.10;;;;;;;21.87;43.10;99366.22;5052794;28;20489;-61
2022/06/18 12:07:16;;;;;;;3.47;1.55;;;;;;;21.88;41.54;99367.06;5048320;28;20040;-62
2022/06/18 12:09:42;;;;;;;6.75;1.33;;;;;;;21.89;42.73;99364.31;5036699;28;20029;-63
2022/06/18 12:12:25;;;;;;;3.22;1.20;;;;;;;21.77;42.46;99354.66;5051162;28;20441;-63